Time;durP1;ratioP1;P1;durP2;ratioP2;P2;SDS_P1;SDS_P2;PMS_P1;PMS_P2;Temp;Humidity;BMP_temperature;BMP_pressure;BME280_temperature;BME280_humidity;BME280_pressure;Samples;Min_cycle;Max_cycle;Signal;HPM_P1;HPM_P2
2022/06/07 00:00:53;;;;;;;;;;;;;;;-140.72;100.00;52695.25;6221239;23;19935;-67
2022/06/07 00:03:19;;;;;;;;;;;;;;;-140.72;100.00;52715.53;6223079;23;20374;-68
2022/06/07 00:05:45;;;;;;;;;;;;;;;-140.72;100.00;52709.44;6223392;23;19939;-67
2022/06/07 00:08:11;;;;;;;;;;;;;;;-140.72;100.00;52693.22;6222577;23;19915;-67
2022/06/07 00:10:36;;;;;;;;;;;;;;;-140.72;100.00;52699.31;6222884;23;19995;-67
2022/06/07 00:13:02;;;;;;;;;;;;;;;-140.72;100.00;52723.66;6223289;23;20050;-67
2022/06/07 00:15:27;;;;;;;;;;;;;;;-140.72;100.00;52717.56;6222179;23;19912;-67
2022/06/07 00:17:52;;;;;;;;;;;;;;;-140.72;100.00;52699.31;6222124;23;19919;-68
2022/06/07 00:20:18;;;;;;;;;;;;;;;-140.72;100.00;52699.31;6222507;23;19919;-68
2022/06/07 00:22:44;;;;;;;;;;;;;;;-140.72;100.00;52658.72;6222955;23;19954;-68
2022/06/07 00:25:10;;;;;;;;;;;;;;;-140.72;100.00;52687.13;6223941;23;19912;-67
2022/06/07 00:27:35;;;;;;;;;;;;;;;-140.72;100.00;52687.13;6221970;23;19987;-67
2022/06/07 00:30:02;;;;;;;;;;;;;;;-140.72;100.00;52735.81;6222925;23;19912;-68
2022/06/07 00:32:27;;;;;;;;;;;;;;;-140.72;100.00;52691.19;6223861;23;19912;-67
2022/06/07 00:34:52;;;;;;;;;;;;;;;-140.72;100.00;52683.06;6225438;23;19912;-68
2022/06/07 00:37:18;;;;;;;;;;;;;;;-140.72;100.00;52672.91;6225053;23;19989;-68
2022/06/07 00:39:43;;;;;;;;;;;;;;;-140.72;100.00;52679.00;6225313;23;19916;-68
2022/06/07 00:42:09;;;;;;;;;;;;;;;-140.72;100.00;52699.31;6225308;23;19919;-68
2022/06/07 00:44:39;;;;;;;;;;;;;;;-140.72;100.00;52707.41;6225537;23;19935;-67
2022/06/07 00:47:08;;;;;;;;;;;;;;;-140.72;100.00;52656.69;6224926;23;20190;-67
2022/06/07 00:49:49;;;;;;;;;;;;;;;-140.72;100.00;52672.91;6224472;23;20377;-67
2022/06/07 00:52:16;;;;;;;;;;;;;;;-140.72;100.00;52679.00;6223516;23;20006;-67
2022/06/07 00:54:41;;;;;;;;;;;;;;;-140.72;100.00;52683.06;6223851;23;19916;-68
2022/06/07 00:57:07;;;;;;;;;;;;;;;-140.72;100.00;52683.06;6248554;23;19923;-67
2022/06/07 00:59:32;;;;;;;;;;;;;;;-140.72;100.00;52695.25;6223325;23;19919;-68
2022/06/07 01:01:57;;;;;;;;;;;;;;;-140.72;100.00;52719.59;6223856;23;19982;-67
2022/06/07 01:04:23;;;;;;;;;;;;;;;-140.72;100.00;52705.38;6247429;23;20329;-68
2022/06/07 01:12:17;;;;;;;;;;;;;;;-140.72;100.00;52715.53;6223899;23;19934;-68
2022/06/07 01:14:42;;;;;;;;;;;;;;;-140.72;100.00;52672.91;6248009;23;19936;-67
2022/06/07 01:17:07;;;;;;;;;;;;;;;-140.72;100.00;52705.38;6223899;23;19911;-67
2022/06/07 01:19:33;;;;;;;;;;;;;;;-140.72;100.00;52687.13;6225429;23;20107;-68
2022/06/07 01:21:58;;;;;;;;;;;;;;;-140.72;100.00;52646.53;6225723;23;19912;-65
2022/06/07 01:24:23;;;;;;;;;;;;;;;-140.72;100.00;52689.16;6225689;23;20002;-67
2022/06/07 01:26:50;;;;;;;;;;;;;;;-140.72;100.00;52699.31;6248902;23;19960;-67
2022/06/07 01:29:16;;;;;;;;;;;;;;;-140.72;100.00;52668.84;6225114;23;19916;-67
2022/06/07 01:31:41;;;;;;;;;;;;;;;-140.72;100.00;52697.28;6225309;23;19955;-67
2022/06/07 01:34:07;;;;;;;;;;;;;;;-140.72;100.00;52691.19;6224076;23;19911;-67
2022/06/07 01:36:32;;;;;;;;;;;;;;;-140.72;100.00;52727.72;6225379;23;19912;-67
2022/06/07 01:41:56;;;;;;;;;;;;;;;-140.72;100.00;52697.28;6225206;23;19977;-67
2022/06/07 01:44:26;;;;;;;;;;;;;;;-140.72;100.00;52683.06;6224698;23;19919;-67
2022/06/07 01:46:53;;;;;;;;;;;;;;;-140.72;100.00;52679.00;6223992;23;19952;-67
2022/06/07 01:49:18;;;;;;;;;;;;;;;-140.72;100.00;52646.53;6224538;23;19935;-67
2022/06/07 01:51:44;;;;;;;;;;;;;;;-140.72;100.00;52679.00;6225465;23;19923;-68
2022/06/07 01:54:10;;;;;;;;;;;;;;;-140.72;100.00;52676.97;6223399;23;19912;-67
2022/06/07 01:56:35;;;;;;;;;;;;;;;-140.72;100.00;52685.09;6224852;23;19912;-67
2022/06/07 01:59:01;;;;;;;;;;;;;;;-140.72;100.00;52699.31;6225124;23;19919;-67
2022/06/07 02:01:26;;;;;;;;;;;;;;;-140.72;100.00;52707.41;6225722;23;19986;-67
2022/06/07 02:03:51;;;;;;;;;;;;;;;-140.72;100.00;52654.66;6225311;23;19919;-67
2022/06/07 02:06:16;;;;;;;;;;;;;;;-140.72;100.00;52628.28;6249403;23;19912;-66
2022/06/07 02:08:42;;;;;;;;;;;;;;;-140.72;100.00;52699.31;6227905;23;19956;-67
2022/06/07 02:11:09;;;;;;;;;;;;;;;-140.72;100.00;52656.69;6226094;23;19911;-67
2022/06/07 02:13:34;;;;;;;;;;;;;;;-140.72;100.00;52679.00;6224790;23;19974;-67
2022/06/07 02:16:00;;;;;;;;;;;;;;;-140.72;100.00;52699.31;6225156;23;19912;-66
2022/06/07 02:18:25;;;;;;;;;;;;;;;-140.72;100.00;52699.31;6225032;23;19912;-67
2022/06/07 02:20:50;;;;;;;;;;;;;;;-140.72;100.00;52703.34;6224492;23;19912;-68
2022/06/07 02:23:15;;;;;;;;;;;;;;;-140.72;100.00;52674.94;6225603;23;19956;-68
2022/06/07 02:25:44;;;;;;;;;;;;;;;-140.72;100.00;52705.38;6246958;23;19938;-68
2022/06/07 02:28:11;;;;;;;;;;;;;;;-140.72;100.00;52715.53;6220643;23;20322;-67
2022/06/07 02:30:38;;;;;;;;;;;;;;;-140.72;100.00;52731.75;6223717;23;19915;-68
2022/06/07 02:33:03;;;;;;;;;;;;;;;-140.72;100.00;52691.19;6224070;23;19995;-68
2022/06/07 02:35:29;;;;;;;;;;;;;;;-140.72;100.00;52695.25;6221625;23;20425;-67
2022/06/07 02:37:54;;;;;;;;;;;;;;;-140.72;100.00;52666.84;6223834;23;19922;-67
2022/06/07 02:40:20;;;;;;;;;;;;;;;-140.72;100.00;52687.13;6225010;23;19966;-69
2022/06/07 02:42:45;;;;;;;;;;;;;;;-140.72;100.00;52666.84;6224337;23;19912;-67
2022/06/07 02:45:11;;;;;;;;;;;;;;;-140.72;100.00;52699.31;6224973;23;19912;-69
2022/06/07 02:47:37;;;;;;;;;;;;;;;-140.72;100.00;52717.56;6248700;23;19918;-67
2022/06/07 02:50:03;;;;;;;;;;;;;;;-140.72;100.00;52674.94;6225113;23;19947;-67
2022/06/07 02:52:28;;;;;;;;;;;;;;;-140.72;100.00;52695.25;6225322;23;20322;-68
2022/06/07 02:54:53;;;;;;;;;;;;;;;-140.72;100.00;52731.75;6225081;23;19916;-67
2022/06/07 02:57:19;;;;;;;;;;;;;;;-140.72;100.00;52723.66;6249382;23;20198;-67
2022/06/07 02:59:44;;;;;;;;;;;;;;;-140.72;100.00;52689.16;6222476;23;19912;-67
2022/06/07 03:02:09;;;;;;;;;;;;;;;-140.72;100.00;52674.94;6223761;23;19931;-68
2022/06/07 03:04:34;;;;;;;;;;;;;;;-140.72;100.00;52679.00;6224363;23;19915;-67
2022/06/07 03:07:00;;;;;;;;;;;;;;;-140.72;100.00;52717.56;6224487;23;19918;-67
2022/06/07 03:09:26;;;;;;;;;;;;;;;-140.72;100.00;52711.47;6247701;23;19915;-68
2022/06/07 03:11:51;;;;;;;;;;;;;;;-140.72;100.00;52685.09;6224265;23;19919;-68
2022/06/07 03:14:16;;;;;;;;;;;;;;;-140.72;100.00;52760.19;6224297;23;19916;-68
2022/06/07 03:16:42;;;;;;;;;;;;;;;-140.72;100.00;52699.31;6224100;23;19919;-68
2022/06/07 03:19:07;;;;;;;;;;;;;;;-140.72;100.00;52731.75;6248553;23;19950;-67
2022/06/07 03:21:33;;;;;;;;;;;;;;;-140.72;100.00;52703.34;6247778;23;19931;-68
2022/06/07 03:23:58;;;;;;;;;;;;;;;-140.72;100.00;52713.50;6223925;23;19985;-67
2022/06/07 03:26:23;;;;;;;;;;;;;;;-140.72;100.00;52697.28;6223604;23;19948;-68
2022/06/07 03:28:49;;;;;;;;;;;;;;;-140.72;100.00;52693.22;6223733;23;19958;-68
2022/06/07 03:31:15;;;;;;;;;;;;;;;-140.72;100.00;52695.25;6222534;23;19919;-67
2022/06/07 03:33:41;;;;;;;;;;;;;;;-140.72;100.00;52713.50;6225161;23;20046;-67
2022/06/07 03:36:14;;;;;;;;;;;;;;;-140.72;100.00;52691.19;6223504;23;19972;-67
2022/06/07 03:38:40;;;;;;;;;;;;;;;-140.72;100.00;52693.22;6221234;23;19912;-68
2022/06/07 03:41:05;;;;;;;;;;;;;;;-140.72;100.00;52681.03;6221089;23;19935;-68
2022/06/07 03:43:31;;;;;;;;;;;;;;;-140.72;100.00;52711.47;6222517;23;19912;-68
2022/06/07 03:46:05;;;;;;;;;;;;;;;-140.72;100.00;52679.00;6219965;23;19912;-67
2022/06/07 03:48:30;;;;;;;;;;;;;;;-140.72;100.00;52679.00;6222476;23;19916;-68
2022/06/07 03:50:55;;;;;;;;;;;;;;;-140.72;100.00;52707.41;6221947;23;19916;-68
2022/06/07 03:53:20;;;;;;;;;;;;;;;-140.72;100.00;52689.16;6222616;23;19935;-67
2022/06/07 03:55:47;;;;;;;;;;;;;;;-140.72;100.00;52715.53;6223496;23;19955;-68
2022/06/07 03:58:13;;;;;;;;;;;;;;;-140.72;100.00;52672.91;6224780;23;19912;-68
2022/06/07 04:00:38;;;;;;;;;;;;;;;-140.72;100.00;52707.41;6223226;23;19966;-68
2022/06/07 04:03:03;;;;;;;;;;;;;;;-140.72;100.00;52693.22;6248121;23;19961;-68
2022/06/07 04:05:28;;;;;;;;;;;;;;;-140.72;100.00;52689.16;6223817;23;20306;-69
2022/06/07 04:08:12;;;;;;;;;;;;;;;-140.72;100.00;52681.03;6224102;23;19912;-69
2022/06/07 04:10:46;;;;;;;;;;;;;;;-140.72;100.00;52705.38;6224263;23;19931;-68
2022/06/07 04:13:12;;;;;;;;;;;;;;;-140.72;100.00;52709.44;6221084;23;19912;-68
2022/06/07 04:15:37;;;;;;;;;;;;;;;-140.72;100.00;52676.97;6223082;23;19950;-68
2022/06/07 04:18:02;;;;;;;;;;;;;;;-140.72;100.00;52705.38;6223349;23;19916;-68
2022/06/07 04:20:27;;;;;;;;;;;;;;;-140.72;100.00;52687.13;6221443;23;19922;-70
2022/06/07 04:22:53;;;;;;;;;;;;;;;-140.72;100.00;52679.00;6227241;23;19934;-70
2022/06/07 04:25:18;;;;;;;;;;;;;;;-140.72;100.00;52672.91;6224422;23;19935;-68
2022/06/07 04:27:43;;;;;;;;;;;;;;;-140.72;100.00;52705.38;6222454;23;20051;-67
2022/06/07 04:30:09;;;;;;;;;;;;;;;-140.72;100.00;52654.66;6221910;23;19912;-68
2022/06/07 04:32:34;;;;;;;;;;;;;;;-140.72;100.00;52666.84;6224628;23;20008;-67
2022/06/07 04:34:59;;;;;;;;;;;;;;;-140.72;100.00;52719.59;6224465;23;19912;-67
2022/06/07 04:37:25;;;;;;;;;;;;;;;-140.72;100.00;52701.31;6227218;23;19912;-67
2022/06/07 04:39:50;;;;;;;;;;;;;;;-140.72;100.00;52674.94;6226771;23;19947;-67
2022/06/07 04:42:15;;;;;;;;;;;;;;;-140.72;100.00;52687.13;6225637;23;20349;-67
2022/06/07 04:44:41;;;;;;;;;;;;;;;-140.72;100.00;52693.22;6224890;23;19972;-67
2022/06/07 04:47:06;;;;;;;;;;;;;;;-140.72;100.00;52638.41;6223410;23;19912;-67
2022/06/07 04:49:31;;;;;;;;;;;;;;;-140.72;100.00;52674.94;6221078;23;19930;-68
2022/06/07 04:51:56;;;;;;;;;;;;;;;-140.72;100.00;52703.34;6227287;23;19915;-72
2022/06/07 04:54:22;;;;;;;;;;;;;;;-140.72;100.00;52697.28;6225321;23;19954;-70
2022/06/07 04:56:47;;;;;;;;;;;;;;;-140.72;100.00;52683.06;6225236;23;19912;-69
2022/06/07 04:59:13;;;;;;;;;;;;;;;-140.72;100.00;52695.25;6250222;23;19986;-70
2022/06/07 05:01:39;;;;;;;;;;;;;;;-140.72;100.00;52662.78;6227423;23;19912;-69
2022/06/07 05:04:05;;;;;;;;;;;;;;;-140.72;100.00;52664.81;6224581;23;19912;-69
2022/06/07 05:06:32;;;;;;;;;;;;;;;-140.72;100.00;52691.19;6223045;23;19919;-74
2022/06/07 05:09:01;;;;;;;;;;;;;;;-140.72;100.00;52685.09;6249755;23;19911;-70
2022/06/07 05:11:27;;;;;;;;;;;;;;;-140.72;100.00;52699.31;6226768;23;19912;-71
2022/06/07 05:13:56;;;;;;;;;;;;;;;-140.72;100.00;52695.25;6226525;23;19912;-69
2022/06/07 05:16:21;;;;;;;;;;;;;;;-140.72;100.00;52713.50;6221488;23;20010;-68
2022/06/07 05:18:47;;;;;;;;;;;;;;;-140.72;100.00;52662.78;6227410;23;20237;-68
2022/06/07 05:21:12;;;;;;;;;;;;;;;-140.72;100.00;52687.13;6227997;23;19912;-68
2022/06/07 05:23:38;;;;;;;;;;;;;;;-140.72;100.00;52679.00;6227503;23;20000;-69
2022/06/07 05:26:20;;;;;;;;;;;;;;;-140.72;100.00;52656.69;6227357;23;19916;-70
2022/06/07 05:28:45;;;;;;;;;;;;;;;-140.72;100.00;52650.59;6227577;23;19912;-69
2022/06/07 05:31:11;;;;;;;;;;;;;;;-140.72;100.00;52648.56;6253317;23;19934;-70
2022/06/07 05:33:36;;;;;;;;;;;;;;;-140.72;100.00;52687.13;6231364;23;19991;-70
2022/06/07 05:36:02;;;;;;;;;;;;;;;-140.72;100.00;52679.00;6229114;23;19919;-70
2022/06/07 05:38:27;;;;;;;;;;;;;;;-140.72;100.00;52681.03;6229541;23;19908;-69
2022/06/07 05:40:53;;;;;;;;;;;;;;;-140.72;100.00;52670.88;6232219;23;19955;-70
2022/06/07 05:43:19;;;;;;;;;;;;;;;-140.72;100.00;52670.88;6217343;23;19990;-73
2022/06/07 05:45:48;;;;;;;;;;;;;;;-140.72;100.00;52695.25;6216269;23;19940;-70
2022/06/07 05:48:13;;;;;;;;;;;;;;;-140.72;100.00;52648.56;6216296;23;19970;-69
2022/06/07 05:50:38;;;;;;;;;;;;;;;-140.72;100.00;52674.94;6227088;23;19912;-68
2022/06/07 05:53:04;;;;;;;;;;;;;;;-140.72;100.00;52672.91;6225947;23;19966;-68
2022/06/07 05:55:29;;;;;;;;;;;;;;;-140.72;100.00;52660.75;6226314;23;19912;-68
2022/06/07 05:57:54;;;;;;;;;;;;;;;-140.72;100.00;52634.38;6226064;23;19919;-69
2022/06/07 06:00:20;;;;;;;;;;;;;;;-140.72;100.00;52658.72;6229772;23;19923;-68
2022/06/07 06:02:45;;;;;;;;;;;;;;;-140.72;100.00;52636.38;6231219;23;19991;-69
2022/06/07 06:05:11;;;;;;;;;;;;;;;-140.72;100.00;52646.53;6236764;23;20329;-70
2022/06/07 06:10:19;;;;;;;;;;;;;;;-140.72;100.00;52632.34;6234285;23;19982;-69
2022/06/07 06:10:22;;;;;;;;;;;;;;;-140.72;100.00;52638.41;6232793;23;19927;-70
2022/06/07 06:12:48;;;;;;;;;;;;;;;-140.72;100.00;52636.38;6231790;23;19912;-69
2022/06/07 06:15:14;;;;;;;;;;;;;;;-140.72;100.00;52656.69;6233662;23;19939;-69
2022/06/07 06:17:40;;;;;;;;;;;;;;;-140.72;100.00;52662.78;6229911;23;19915;-69
2022/06/07 06:20:06;;;;;;;;;;;;;;;-140.72;100.00;52646.53;6258408;23;19963;-69
2022/06/07 06:22:34;;;;;;;;;;;;;;;-140.72;100.00;52622.19;6231764;23;19919;-69
2022/06/07 06:24:59;;;;;;;;;;;;;;;-140.72;100.00;52668.84;6231776;23;19959;-69
2022/06/07 06:27:25;;;;;;;;;;;;;;;-140.72;100.00;52634.38;6232082;23;19900;-69
2022/06/07 06:29:50;;;;;;;;;;;;;;;-140.72;100.00;52642.47;6256947;23;19912;-69
2022/06/07 06:32:16;;;;;;;;;;;;;;;-140.72;100.00;52634.38;6256969;23;19919;-69
2022/06/07 06:34:41;;;;;;;;;;;;;;;-140.72;100.00;52670.88;6233103;23;19987;-69
2022/06/07 06:37:06;;;;;;;;;;;;;;;-140.72;100.00;52658.72;6232118;23;19912;-70
2022/06/07 06:39:32;;;;;;;;;;;;;;;-140.72;100.00;52634.38;6232370;23;19927;-69
2022/06/07 06:41:57;;;;;;;;;;;;;;;-140.72;100.00;52658.72;6229742;23;19919;-69
2022/06/07 06:44:22;;;;;;;;;;;;;;;-140.72;100.00;52607.97;6231474;23;19916;-69
2022/06/07 06:46:48;;;;;;;;;;;;;;;-140.72;100.00;52656.69;6230868;23;20029;-69
2022/06/07 06:49:14;;;;;;;;;;;;;;;-140.72;100.00;52652.63;6230686;23;20285;-71
2022/06/07 06:51:41;;;;;;;;;;;;;;;-140.72;100.00;52589.72;6229826;23;19935;-69
2022/06/07 06:54:06;;;;;;;;;;;;;;;-140.72;100.00;52650.59;6230548;23;20214;-69
2022/06/07 06:56:32;;;;;;;;;;;;;;;-140.72;100.00;52656.69;6230657;23;19956;-69
2022/06/07 06:58:57;;;;;;;;;;;;;;;-140.72;100.00;52612.03;6253671;23;19960;-74
2022/06/07 07:01:26;;;;;;;;;;;;;;;-140.72;100.00;52640.44;6226761;23;19955;-67
2022/06/07 07:03:51;;;;;;;;;;;;;;;-140.72;100.00;52632.34;6230483;23;19916;-68
2022/06/07 07:06:17;;;;;;;;;;;;;;;-140.72;100.00;52610.00;6231550;23;19939;-68
2022/06/07 07:08:44;;;;;;;;;;;;;;;-140.72;100.00;52630.31;6234417;23;19919;-68
2022/06/07 07:11:09;;;;;;;;;;;;;;;-140.72;100.00;52622.19;6233023;23;19912;-68
2022/06/07 07:13:35;;;;;;;;;;;;;;;-140.72;100.00;52644.50;6225097;23;20030;-69
2022/06/07 07:16:00;;;;;;;;;;;;;;;-140.72;100.00;52640.44;6230151;23;19927;-67
2022/06/07 07:18:26;;;;;;;;;;;;;;;-140.72;100.00;52589.72;6229126;23;20357;-69
2022/06/07 07:20:51;;;;;;;;;;;;;;;-140.72;100.00;52632.34;6228415;23;19912;-68
2022/06/07 07:23:17;;;;;;;;;;;;;;;-140.72;100.00;52618.13;6230419;23;19927;-69
2022/06/07 07:25:42;;;;;;;;;;;;;;;-140.72;100.00;52589.72;6230507;23;19911;-68
2022/06/07 07:28:07;;;;;;;;;;;;;;;-140.72;100.00;52587.69;6229898;23;19911;-69
2022/06/07 07:30:33;;;;;;;;;;;;;;;-140.72;100.00;52581.59;6230046;23;20127;-69
2022/06/07 07:32:58;;;;;;;;;;;;;;;-140.72;100.00;52630.31;6253933;23;19956;-70
2022/06/07 07:35:24;;;;;;;;;;;;;;;-140.72;100.00;52571.47;6230509;23;19964;-69
2022/06/07 07:37:49;;;;;;;;;;;;;;;-140.72;100.00;52589.72;6230848;23;19916;-69
2022/06/07 07:40:14;;;;;;;;;;;;;;;-140.72;100.00;52607.97;6251675;23;19912;-73
2022/06/07 07:42:41;;;;;;;;;;;;;;;-140.72;100.00;52605.94;6226303;23;19912;-69
2022/06/07 07:45:06;;;;;;;;;;;;;;;-140.72;100.00;52587.69;6247721;23;19927;-68
2022/06/07 07:47:32;;;;;;;;;;;;;;;-140.72;100.00;52607.97;6221727;23;19916;-71
2022/06/07 07:49:57;;;;;;;;;;;;;;;-140.72;100.00;52561.31;6220972;23;19930;-69
2022/06/07 07:52:23;;;;;;;;;;;;;;;-140.72;100.00;52607.97;6221938;23;19915;-69
2022/06/07 07:54:49;;;;;;;;;;;;;;;-140.72;100.00;52573.50;6246262;23;19911;-69
2022/06/07 07:57:14;;;;;;;;;;;;;;;-140.72;100.00;52618.13;6223190;23;19935;-70
2022/06/07 07:59:39;;;;;;;;;;;;;;;-140.72;100.00;52618.13;6245946;23;19912;-71
2022/06/07 08:02:04;;;;;;;;;;;;;;;-140.72;100.00;52622.19;6221926;23;19912;-69
2022/06/07 08:04:29;;;;;;;;;;;;;;;-140.72;100.00;52648.56;6245453;23;19916;-69
2022/06/07 08:06:55;;;;;;;;;;;;;;;-140.72;100.00;52569.44;6246043;23;19919;-69
2022/06/07 08:09:22;;;;;;;;;;;;;;;-140.72;100.00;52599.88;6246640;23;19947;-69
2022/06/07 08:11:47;;;;;;;;;;;;;;;-140.72;100.00;52622.19;6221000;23;19912;-69
2022/06/07 08:14:15;;;;;;;;;;;;;;;-140.72;100.00;52591.75;6249061;23;20101;-69
2022/06/07 08:16:40;;;;;;;;;;;;;;;-140.72;100.00;52630.31;6222550;23;19911;-69
2022/06/07 08:19:08;;;;;;;;;;;;;;;-140.72;100.00;52603.94;6221562;23;19942;-70
2022/06/07 08:21:33;;;;;;;;;;;;;;;-140.72;100.00;52593.78;6245186;23;19916;-70
2022/06/07 08:23:59;;;;;;;;;;;;;;;-140.72;100.00;52589.72;6221969;23;19942;-70
2022/06/07 08:26:26;;;;;;;;;;;;;;;-140.72;100.00;52614.06;6222924;23;19912;-70
2022/06/07 08:28:51;;;;;;;;;;;;;;;-140.72;100.00;52575.50;6222561;23;19912;-71
2022/06/07 08:31:18;;;;;;;;;;;;;;;-140.72;100.00;52599.88;6224604;23;19912;-69
2022/06/07 08:39:11;;;;;;;;;;;;;;;-140.72;100.00;52589.72;6222415;23;19915;-70
2022/06/07 08:41:52;;;;;;;;;;;;;;;-140.72;100.00;52599.88;6222256;23;19994;-70
2022/06/07 08:44:37;;;;;;;;;;;;;;;-140.72;100.00;52581.59;6221453;23;19930;-70
2022/06/07 08:47:05;;;;;;;;;;;;;;;-140.72;100.00;52543.03;6221728;23;19923;-70
2022/06/07 08:49:31;;;;;;;;;;;;;;;-140.72;100.00;52557.25;6222586;23;19939;-69
2022/06/07 08:52:08;;;;;;;;;;;;;;;-140.72;100.00;52563.34;6222810;23;19969;-70
2022/06/07 08:54:36;;;;;;;;;;;;;;;-140.72;100.00;52569.44;6225015;23;19916;-68
2022/06/07 08:57:11;;;;;;;;;;;;;;;-140.72;100.00;52581.59;6229514;23;19960;-68
2022/06/07 08:59:36;;;;;;;;;;;;;;;-140.72;100.00;52532.91;6229819;23;19916;-68
2022/06/07 09:02:01;;;;;;;;;;;;;;;-140.72;100.00;52585.66;6230376;23;19916;-68
2022/06/07 09:04:29;;;;;;;;;;;;;;;-140.72;100.00;52573.50;6231622;23;19936;-68
2022/06/07 09:06:57;;;;;;;;;;;;;;;-140.72;100.00;52541.03;6251854;23;20026;-69
2022/06/07 09:12:09;;;;;;;;;;;;;;;-140.72;100.00;52508.56;6226213;23;19938;-71
2022/06/07 09:12:14;;;;;;;;;;;;;;;-140.72;100.00;52557.25;6225202;23;20221;-70
2022/06/07 09:14:58;;;;;;;;;;;;;;;-140.72;100.00;52539.00;6223238;23;19912;-70
2022/06/07 09:17:26;;;;;;;;;;;;;;;-140.72;100.00;52561.31;6228680;23;19937;-70
2022/06/07 09:19:51;;;;;;;;;;;;;;;-140.72;100.00;52553.19;6225361;23;19912;-70
2022/06/07 09:22:25;;;;;;;;;;;;;;;-140.72;100.00;52543.03;6226322;23;20292;-70
2022/06/07 09:25:03;;;;;;;;;;;;;;;-140.72;100.00;52534.94;6225696;23;19927;-70
2022/06/07 09:27:31;;;;;;;;;;;;;;;-140.72;100.00;52549.13;6225503;23;19916;-70
2022/06/07 09:29:59;;;;;;;;;;;;;;;-140.72;100.00;52536.97;6225886;23;19912;-70
2022/06/07 09:32:27;;;;;;;;;;;;;;;-140.72;100.00;52539.00;6223156;23;20356;-69
2022/06/07 09:35:21;;;;;;;;;;;;;;;-140.72;100.00;52583.63;6224855;23;19912;-71
2022/06/07 09:37:53;;;;;;;;;;;;;;;-140.72;100.00;52593.78;6210948;23;19949;-70
2022/06/07 09:40:21;;;;;;;;;;;;;;;-140.72;100.00;52569.44;6226213;23;19912;-69
2022/06/07 09:42:51;;;;;;;;;;;;;;;-140.72;100.00;52557.25;6223639;23;19912;-70
2022/06/07 09:45:20;;;;;;;;;;;;;;;-140.72;100.00;52603.94;6224106;23;19919;-70
2022/06/07 09:47:47;;;;;;;;;;;;;;;-140.72;100.00;52587.69;6222360;23;20305;-70
2022/06/07 09:50:18;;;;;;;;;;;;;;;-140.72;100.00;52583.63;6227672;23;19916;-70
2022/06/07 09:52:46;;;;;;;;;;;;;;;-140.72;100.00;52607.97;6231260;23;19942;-70
2022/06/07 09:55:30;;;;;;;;;;;;;;;-140.72;100.00;52589.72;6230034;23;20238;-70
2022/06/07 09:58:14;;;;;;;;;;;;;;;-140.72;100.00;52567.41;6232032;23;19919;-70
2022/06/07 10:00:44;;;;;;;;;;;;;;;-140.72;100.00;52587.69;6229836;23;19964;-70
2022/06/07 10:03:25;;;;;;;;;;;;;;;-140.72;100.00;52543.03;6228126;23;19952;-70
2022/06/07 10:05:54;;;;;;;;;;;;;;;-140.72;100.00;52553.19;6225950;23;19964;-70
2022/06/07 10:08:25;;;;;;;;;;;;;;;-140.72;100.00;52545.06;6227836;23;19915;-70
2022/06/07 10:11:02;;;;;;;;;;;;;;;-140.72;100.00;52559.28;6227543;23;19964;-70
2022/06/07 10:13:39;;;;;;;;;;;;;;;-140.72;100.00;52528.84;6225634;23;19959;-70
2022/06/07 10:16:05;;;;;;;;;;;;;;;-140.72;100.00;52557.25;6226400;23;19919;-69
2022/06/07 10:18:30;;;;;;;;;;;;;;;-140.72;100.00;52545.06;6224156;23;19956;-70
2022/06/07 10:21:18;;;;;;;;;;;;;;;-140.72;100.00;52553.19;6226083;23;19912;-70
2022/06/07 10:24:01;;;;;;;;;;;;;;;-140.72;100.00;52536.97;6225856;23;19912;-70
2022/06/07 10:26:45;;;;;;;;;;;;;;;-140.72;100.00;52514.63;6225855;23;19916;-70
2022/06/07 10:29:20;;;;;;;;;;;;;;;-140.72;100.00;52536.97;6225346;23;20229;-70
2022/06/07 10:31:51;;;;;;;;;;;;;;;-140.72;100.00;52524.78;6225815;23;19928;-71
2022/06/07 10:34:26;;;;;;;;;;;;;;;-140.72;100.00;52547.09;6225092;23;19923;-70
2022/06/07 10:36:58;;;;;;;;;;;;;;;-140.72;100.00;52528.84;6225231;23;19912;-70
2022/06/07 10:39:38;;;;;;;;;;;;;;;-140.72;100.00;52500.44;6247635;23;19935;-71
2022/06/07 10:42:25;;;;;;;;;;;;;;;-140.72;100.00;52534.94;6248008;23;19916;-71
2022/06/07 10:44:56;;;;;;;;;;;;;;;-140.72;100.00;52585.66;6247753;23;19912;-70
2022/06/07 10:47:21;;;;;;;;;;;;;;;-140.72;100.00;52575.50;6246685;23;19939;-70
2022/06/07 10:49:52;;;;;;;;;;;;;;;-140.72;100.00;52532.91;6221231;23;20277;-70
2022/06/07 10:52:24;;;;;;;;;;;;;;;-140.72;100.00;52557.25;6226804;23;19912;-69
2022/06/07 10:54:49;;;;;;;;;;;;;;;-140.72;100.00;52543.03;6255676;23;19940;-69
2022/06/07 10:57:27;;;;;;;;;;;;;;;-140.72;100.00;52549.13;6232880;23;19919;-69
2022/06/07 10:59:52;;;;;;;;;;;;;;;-140.72;100.00;52478.13;6232993;23;19911;-69
2022/06/07 11:02:35;;;;;;;;;;;;;;;-140.72;100.00;52565.38;6232498;23;19919;-68
2022/06/07 11:10:36;;;;;;;;;;;;;;;-140.72;100.00;52530.88;6229141;23;19946;-69
2022/06/07 11:13:16;;;;;;;;;;;;;;;-140.72;100.00;52526.81;6228758;23;19947;-69
2022/06/07 11:16:05;;;;;;;;;;;;;;;-140.72;100.00;52502.47;6226203;23;19919;-71
2022/06/07 11:18:30;;;;;;;;;;;;;;;-140.72;100.00;52449.72;6219774;23;19916;-68
2022/06/07 11:21:02;;;;;;;;;;;;;;;-140.72;100.00;52451.72;6220459;23;19934;-67
2022/06/07 11:23:30;;;;;;;;;;;;;;;-140.72;100.00;52461.88;6219006;23;19938;-68
2022/06/07 11:26:04;;;;;;;;;;;;;;;-140.72;100.00;52415.22;6224588;23;19916;-69
2022/06/07 11:28:32;;;;;;;;;;;;;;;-140.72;100.00;52451.72;6222408;23;19926;-68
2022/06/07 11:31:17;;;;;;;;;;;;;;;-140.72;100.00;52474.06;6220339;23;19954;-67
2022/06/07 11:33:51;;;;;;;;;;;;;;;-140.72;100.00;52486.22;6218703;23;19912;-67
2022/06/07 11:36:25;;;;;;;;;;;;;;;-140.72;100.00;52478.13;6220928;23;19912;-67
2022/06/07 11:38:54;;;;;;;;;;;;;;;-140.72;100.00;52496.38;6220795;23;19956;-67
2022/06/07 11:41:37;;;;;;;;;;;;;;;-140.72;100.00;52486.22;6219772;23;19958;-67
2022/06/07 11:44:11;;;;;;;;;;;;;;;-140.72;100.00;52484.19;6220184;23;20301;-66
2022/06/07 11:46:57;;;;;;;;;;;;;;;-140.72;100.00;52488.25;6219553;23;19919;-67
2022/06/07 11:49:26;;;;;;;;;;;;;;;-140.72;100.00;52504.50;6219169;23;19916;-67
2022/06/07 11:51:56;;;;;;;;;;;;;;;-140.72;100.00;52534.94;6219234;23;19911;-68
2022/06/07 11:54:27;;;;;;;;;;;;;;;-140.72;100.00;52498.41;6217722;23;19912;-67
2022/06/07 11:56:55;;;;;;;;;;;;;;;-140.72;100.00;52437.53;6241509;23;19912;-67
2022/06/07 11:59:22;;;;;;;;;;;;;;;-140.72;100.00;52427.38;6221100;23;20118;-67
2022/06/07 12:02:07;;;;;;;;;;;;;;;-140.72;100.00;52476.09;6218448;23;19911;-68
2022/06/07 12:04:43;;;;;;;;;;;;;;;-140.72;100.00;52508.56;6218835;23;19926;-71
2022/06/07 12:07:14;;;;;;;;;;;;;;;-140.72;100.00;52480.16;6218594;23;20002;-68
2022/06/07 12:09:45;;;;;;;;;;;;;;;-140.72;100.00;52350.28;6217941;23;19918;-68
2022/06/07 12:12:18;;;;;;;;;;;;;;;-140.72;100.00;52325.94;6217539;23;20287;-67
2022/06/07 12:14:45;;;;;;;;;;;;;;;-140.72;100.00;52431.44;6218132;23;19916;-68
2022/06/07 12:17:25;;;;;;;;;;;;;;;-140.72;100.00;52398.97;6217437;23;19912;-67
2022/06/07 12:19:51;;;;;;;;;;;;;;;-140.72;100.00;52423.31;6218946;23;20002;-67
2022/06/07 12:22:18;;;;;;;;;;;;;;;-140.72;100.00;52435.50;6218077;23;19932;-66
2022/06/07 12:24:57;;;;;;;;;;;;;;;-140.72;100.00;52427.38;6218600;23;19964;-67
2022/06/07 12:27:23;;;;;;;;;;;;;;;-140.72;100.00;52472.03;6215953;23;19994;-67
2022/06/07 12:29:48;;;;;;;;;;;;;;;-140.72;100.00;52409.13;6218450;23;19912;-68
2022/06/07 12:32:21;;;;;;;;;;;;;;;-140.72;100.00;52301.59;6220091;23;19970;-67
2022/06/07 12:34:46;;;;;;;;;;;;;;;-140.72;100.00;52342.16;6219350;23;19916;-68
2022/06/07 12:37:12;;;;;;;;;;;;;;;-140.72;100.00;52356.38;6243539;23;19965;-68
2022/06/07 12:39:50;;;;;;;;;;;;;;;-140.72;100.00;52279.25;6219670;23;19939;-68
2022/06/07 12:42:17;;;;;;;;;;;;;;;-140.72;100.00;52297.53;6219142;23;19919;-68